Terminal Aerodrome Forecast
Issued by NWS

Home | Current Version | Previous Version | Text Only | Print | Product List | Glossary On
Versions: 1 2 3 4 5 6 7 8 9 10 11 12 13 14 15
000
FTAK31 PAJN 012300
TAFAPG
TAF
PAPG 012320Z 0200/0224 08005KT P6SM FEW040
     FM020300 VRB04KT P6SM SKC
     FM021200 VRB04KT P6SM BCFG FEW002
     FM021700 06008KT P6SM SCT100
     FM022100 10012KT P6SM VCSH OVC050
      AMD LTD TO CLD VIS AND WIND 0206/0215=

USA.gov is the U.S. government's official web portal to all federal, state and local government web resources and services.